Time,TemperatureF,DewpointF,PressureIn,WindDirection,WindDirectionDegrees,WindSpeedMPH,WindSpeedGustMPH,Humidity,HourlyPrecipIn,Conditions,Clouds,dailyrainin,SoftwareType,DateUTC
2013-01-23 00:00:00,-0.5,-6.0,30.41,N/A,-737280,0.0,-999.0,77,0.00,,,0.00,Wunderground v.1.15,2013-01-23 06:00:00,
2013-01-23 00:05:00,-0.4,-5.9,30.41,N/A,-737280,0.0,-999.0,77,0.00,,,0.00,Wunderground v.1.15,2013-01-23 06:05:00,
2013-01-23 00:10:00,-0.4,-5.9,30.40,N/A,-737280,0.0,-999.0,77,0.00,,,0.00,Wunderground v.1.15,2013-01-23 06:10:00,
2013-01-23 00:15:00,-0.5,-6.0,30.40,N/A,-737280,0.0,-999.0,77,0.00,,,0.00,Wunderground v.1.15,2013-01-23 06:15:00,
2013-01-23 00:20:00,-0.5,-5.7,30.39,N/A,-737280,0.0,-999.0,78,0.00,,,0.00,Wunderground v.1.15,2013-01-23 06:20:00,
2013-01-23 00:25:00,-0.6,-5.8,30.39,N/A,-737280,0.0,-999.0,78,0.00,,,0.00,Wunderground v.1.15,2013-01-23 06:25:00,
2013-01-23 00:30:00,0.0,-3.9,30.39,N/A,-737280,0.0,-999.0,83,0.00,,,0.00,Wunderground v.1.15,2013-01-23 06:30:00,
2013-01-23 00:35:00,0.2,-3.7,30.39,N/A,-737280,0.0,-999.0,83,0.00,,,0.00,Wunderground v.1.15,2013-01-23 06:35:00,
2013-01-23 00:40:00,0.3,-3.6,30.39,N/A,-737280,0.0,-999.0,83,0.00,,,0.00,Wunderground v.1.15,2013-01-23 06:40:00,
2013-01-23 00:45:00,0.4,-3.5,30.39,N/A,-737280,0.0,-999.0,83,0.00,,,0.00,Wunderground v.1.15,2013-01-23 06:45:00,
2013-01-23 00:50:00,-999.9,-99.9,30.39,N/A,-737280,0.0,-999.0,83,0.00,,,0.00,Wunderground v.1.15,2013-01-23 06:50:00,
2013-01-23 01:00:00,-0.1,-4.8,30.39,N/A,-737280,0.0,-999.0,80,0.00,,,0.00,Wunderground v.1.15,2013-01-23 07:00:00,
2013-01-23 01:05:00,0.1,-4.6,30.39,N/A,-737280,0.0,-999.0,80,0.00,,,0.00,Wunderground v.1.15,2013-01-23 07:05:00,
2013-01-23 01:10:00,0.3,-4.4,30.38,N/A,-737280,0.0,-999.0,80,0.00,,,0.00,Wunderground v.1.15,2013-01-23 07:10:00,
2013-01-23 01:15:00,0.5,-4.0,30.38,N/A,-737280,0.0,-999.0,81,0.00,,,0.00,Wunderground v.1.15,2013-01-23 07:15:00,
2013-01-23 01:20:00,0.8,-3.7,30.38,N/A,-737280,0.0,-999.0,81,0.00,,,0.00,Wunderground v.1.15,2013-01-23 07:20:00,
2013-01-23 01:25:00,1.1,-3.4,30.38,N/A,-737280,0.0,-999.0,81,0.00,,,0.00,Wunderground v.1.15,2013-01-23 07:25:00,
2013-01-23 01:30:00,1.3,-3.4,30.39,SW,225,0.0,-999.0,80,0.00,,,0.00,Wunderground v.1.15,2013-01-23 07:30:00,
2013-01-23 01:35:00,1.6,-3.1,30.39,N/A,-737280,0.0,-999.0,80,0.00,,,0.00,Wunderground v.1.15,2013-01-23 07:35:00,
2013-01-23 01:40:00,1.8,-2.9,30.39,N/A,-737280,0.0,-999.0,80,0.00,,,0.00,Wunderground v.1.15,2013-01-23 07:40:00,
2013-01-23 01:45:00,2.0,-2.8,30.39,N/A,-737280,0.0,-999.0,80,0.00,,,0.00,Wunderground v.1.15,2013-01-23 07:45:00,
2013-01-23 01:50:00,2.2,-2.6,30.39,N/A,-737280,0.0,-999.0,80,0.00,,,0.00,Wunderground v.1.15,2013-01-23 07:50:00,
2013-01-23 01:55:00,2.4,-2.4,30.39,N/A,-737280,0.0,-999.0,80,0.00,,,0.00,Wunderground v.1.15,2013-01-23 07:55:00,
2013-01-23 02:00:00,2.6,-2.2,30.38,N/A,-737280,0.0,-999.0,80,0.00,,,0.00,Wunderground v.1.15,2013-01-23 08:00:00,
2013-01-23 02:05:00,2.8,-2.0,30.39,N/A,-737280,0.0,-999.0,80,0.00,,,0.00,Wunderground v.1.15,2013-01-23 08:05:00,
2013-01-23 02:10:00,2.9,-1.9,30.39,N/A,-737280,0.0,-999.0,80,0.00,,,0.00,Wunderground v.1.15,2013-01-23 08:10:00,
2013-01-23 02:15:00,3.2,-1.6,30.39,N/A,-737280,0.0,-999.0,80,0.00,,,0.00,Wunderground v.1.15,2013-01-23 08:15:00,
2013-01-23 02:20:00,3.4,-1.4,30.39,N/A,-737280,0.0,-999.0,80,0.00,,,0.00,Wunderground v.1.15,2013-01-23 08:20:00,
2013-01-23 02:25:00,3.6,-1.2,30.39,N/A,-737280,0.0,-999.0,80,0.00,,,0.00,Wunderground v.1.15,2013-01-23 08:25:00,
2013-01-23 02:30:00,3.7,-1.1,30.38,N/A,-737280,0.0,-999.0,80,0.00,,,0.00,Wunderground v.1.15,2013-01-23 08:30:00,
2013-01-23 02:35:00,3.8,-1.3,30.38,N/A,-737280,0.0,-999.0,79,0.00,,,0.00,Wunderground v.1.15,2013-01-23 08:35:00,
2013-01-23 02:40:00,4.0,-1.1,30.38,N/A,-737280,0.0,-999.0,79,0.00,,,0.00,Wunderground v.1.15,2013-01-23 08:40:00,
2013-01-23 02:45:00,4.2,-0.9,30.38,N/A,-737280,0.0,-999.0,79,0.00,,,0.00,Wunderground v.1.15,2013-01-23 08:45:00,
2013-01-23 02:50:00,4.4,-0.7,30.38,N/A,-737280,0.0,-999.0,79,0.00,,,0.00,Wunderground v.1.15,2013-01-23 08:50:00,
2013-01-23 02:55:00,4.6,-0.5,30.38,N/A,-737280,0.0,-999.0,79,0.00,,,0.00,Wunderground v.1.15,2013-01-23 08:55:00,
2013-01-23 03:00:00,4.8,-0.3,30.37,N/A,-737280,0.0,-999.0,79,0.00,,,0.00,Wunderground v.1.15,2013-01-23 09:00:00,
2013-01-23 03:05:00,4.9,-0.5,30.37,N/A,-737280,0.0,-999.0,78,0.00,,,0.00,Wunderground v.1.15,2013-01-23 09:05:00,
2013-01-23 03:10:00,5.0,1.7,30.37,N/A,-737280,0.0,-999.0,86,0.00,,,0.00,Wunderground v.1.15,2013-01-23 09:10:00,
2013-01-23 03:15:00,5.1,-0.8,30.37,SW,225,0.0,-999.0,76,0.00,,,0.00,Wunderground v.1.15,2013-01-23 09:15:00,
2013-01-23 03:20:00,5.3,-0.6,30.37,SW,225,0.0,-999.0,76,0.00,,,0.00,Wunderground v.1.15,2013-01-23 09:20:00,
2013-01-23 03:25:00,5.3,-0.6,30.37,SW,225,0.0,-999.0,76,0.00,,,0.00,Wunderground v.1.15,2013-01-23 09:25:00,
2013-01-23 03:30:00,5.4,-0.5,30.37,SW,225,0.0,-999.0,76,0.00,,,0.00,Wunderground v.1.15,2013-01-23 09:30:00,
2013-01-23 03:35:00,5.5,-0.4,30.37,SW,225,0.0,-999.0,76,0.00,,,0.00,Wunderground v.1.15,2013-01-23 09:35:00,
2013-01-23 03:40:00,5.6,-0.1,30.36,SW,225,0.0,-999.0,77,0.00,,,0.00,Wunderground v.1.15,2013-01-23 09:40:00,
2013-01-23 03:45:00,5.6,-0.1,30.36,SW,225,0.0,-999.0,77,0.00,,,0.00,Wunderground v.1.15,2013-01-23 09:45:00,
2013-01-23 03:50:00,5.6,0.2,30.36,SW,225,0.0,-999.0,78,0.00,,,0.00,Wunderground v.1.15,2013-01-23 09:50:00,
2013-01-23 03:55:00,5.6,-0.1,30.36,SW,225,0.0,-999.0,77,0.00,,,0.00,Wunderground v.1.15,2013-01-23 09:55:00,
2013-01-23 04:00:00,5.7,0.0,30.36,N/A,-737280,0.0,-999.0,77,0.00,,,0.00,Wunderground v.1.15,2013-01-23 10:00:00,
2013-01-23 04:05:00,5.8,0.1,30.36,SW,225,0.0,-999.0,77,0.00,,,0.00,Wunderground v.1.15,2013-01-23 10:05:00,
2013-01-23 04:10:00,5.9,0.2,30.36,SW,225,1.0,-999.0,77,0.00,,,0.00,Wunderground v.1.15,2013-01-23 10:10:00,
2013-01-23 04:15:00,6.0,0.1,30.35,SW,225,0.0,-999.0,76,0.00,,,0.00,Wunderground v.1.15,2013-01-23 10:15:00,
2013-01-23 04:20:00,6.1,0.2,30.35,SW,225,0.0,-999.0,76,0.00,,,0.00,Wunderground v.1.15,2013-01-23 10:20:00,
2013-01-23 04:25:00,6.2,0.3,30.35,SW,225,0.0,-999.0,76,0.00,,,0.00,Wunderground v.1.15,2013-01-23 10:25:00,
2013-01-23 04:30:00,6.2,0.3,30.35,SW,225,0.0,-999.0,76,0.00,,,0.00,Wunderground v.1.15,2013-01-23 10:30:00,
2013-01-23 04:35:00,6.3,0.3,30.35,SW,225,0.0,-999.0,76,0.00,,,0.00,Wunderground v.1.15,2013-01-23 10:35:00,
2013-01-23 04:40:00,6.3,0.3,30.34,SW,225,0.0,-999.0,76,0.00,,,0.00,Wunderground v.1.15,2013-01-23 10:40:00,
2013-01-23 04:45:00,6.4,0.4,30.34,N/A,-737280,0.0,-999.0,76,0.00,,,0.00,Wunderground v.1.15,2013-01-23 10:45:00,
2013-01-23 04:50:00,6.5,0.5,30.34,N/A,-737280,0.0,-999.0,76,0.00,,,0.00,Wunderground v.1.15,2013-01-23 10:50:00,
2013-01-23 04:55:00,6.6,0.6,30.34,N/A,-737280,0.0,-999.0,76,0.00,,,0.00,Wunderground v.1.15,2013-01-23 10:55:00,
2013-01-23 05:00:00,6.7,0.7,30.34,SW,225,1.0,-999.0,76,0.00,,,0.00,Wunderground v.1.15,2013-01-23 11:00:00,
2013-01-23 05:05:00,6.8,0.6,30.34,SW,225,0.0,-999.0,75,0.00,,,0.00,Wunderground v.1.15,2013-01-23 11:05:00,
2013-01-23 05:10:00,6.9,0.6,30.33,SW,225,0.0,-999.0,75,0.00,,,0.00,Wunderground v.1.15,2013-01-23 11:10:00,
2013-01-23 05:15:00,7.1,0.6,30.34,SW,225,0.0,-999.0,74,0.00,,,0.00,Wunderground v.1.15,2013-01-23 11:15:00,
2013-01-23 05:20:00,7.2,0.7,30.34,SW,225,0.0,-999.0,74,0.00,,,0.00,Wunderground v.1.15,2013-01-23 11:20:00,
2013-01-23 05:25:00,7.4,0.3,30.34,SW,225,1.0,-999.0,72,0.00,,,0.00,Wunderground v.1.15,2013-01-23 11:25:00,
2013-01-23 05:30:00,7.5,0.1,30.34,SW,225,0.0,-999.0,71,0.00,,,0.00,Wunderground v.1.15,2013-01-23 11:30:00,
2013-01-23 05:35:00,7.6,0.2,30.34,SW,225,1.0,-999.0,71,0.00,,,0.00,Wunderground v.1.15,2013-01-23 11:35:00,
2013-01-23 05:40:00,7.7,-0.1,30.34,SW,225,0.0,-999.0,70,0.00,,,0.00,Wunderground v.1.15,2013-01-23 11:40:00,
2013-01-23 05:45:00,7.8,0.0,30.34,SW,225,0.0,-999.0,70,0.00,,,0.00,Wunderground v.1.15,2013-01-23 11:45:00,
2013-01-23 05:50:00,7.9,-0.2,30.34,SW,225,0.0,-999.0,69,0.00,,,0.00,Wunderground v.1.15,2013-01-23 11:50:00,
2013-01-23 05:55:00,7.9,-0.5,30.34,N/A,-737280,0.0,-999.0,68,0.00,,,0.00,Wunderground v.1.15,2013-01-23 11:55:00,
2013-01-23 06:00:00,8.0,-0.4,30.34,SW,225,0.0,-999.0,68,0.00,,,0.00,Wunderground v.1.15,2013-01-23 12:00:00,
2013-01-23 06:05:00,8.1,-0.6,30.34,SW,225,0.0,-999.0,67,0.00,,,0.00,Wunderground v.1.15,2013-01-23 12:05:00,
2013-01-23 06:10:00,8.1,-0.6,30.33,SW,225,0.0,-999.0,67,0.00,,,0.00,Wunderground v.1.15,2013-01-23 12:10:00,
2013-01-23 06:15:00,8.2,-0.5,30.33,N/A,-737280,0.0,-999.0,67,0.00,,,0.00,Wunderground v.1.15,2013-01-23 12:15:00,
2013-01-23 06:20:00,8.2,-0.5,30.33,SW,225,0.0,-999.0,67,0.00,,,0.00,Wunderground v.1.15,2013-01-23 12:20:00,
2013-01-23 06:25:00,8.3,-0.4,30.33,N/A,-737280,0.0,-999.0,67,0.00,,,0.00,Wunderground v.1.15,2013-01-23 12:25:00,
2013-01-23 06:30:00,8.3,-0.4,30.33,N/A,-737280,0.0,-999.0,67,0.00,,,0.00,Wunderground v.1.15,2013-01-23 12:30:00,
2013-01-23 06:35:00,8.3,-0.7,30.33,N/A,-737280,0.0,-999.0,66,0.00,,,0.00,Wunderground v.1.15,2013-01-23 12:35:00,
2013-01-23 06:40:00,8.3,-0.7,30.32,N/A,-737280,0.0,-999.0,66,0.00,,,0.00,Wunderground v.1.15,2013-01-23 12:40:00,
2013-01-23 06:45:00,8.4,-0.3,30.32,N/A,-737280,0.0,-999.0,67,0.00,,,0.00,Wunderground v.1.15,2013-01-23 12:45:00,
2013-01-23 06:50:00,8.4,-0.3,30.32,N/A,-737280,0.0,-999.0,67,0.00,,,0.00,Wunderground v.1.15,2013-01-23 12:50:00,
2013-01-23 06:53:00,8.4,0.0,30.31,N/A,-737280,0.0,-999.0,68,0.00,,,0.00,Wunderground v.1.15,2013-01-23 12:53:00,
2013-01-23 06:55:00,8.4,0.0,30.31,SW,225,0.0,-999.0,68,0.00,,,0.00,Wunderground v.1.15,2013-01-23 12:55:00,
2013-01-23 06:57:00,8.4,0.0,30.31,SW,232,0.0,0.0,68,0.00,,,0.00,Wunderground v.1.15,2013-01-23 12:57:00,
2013-01-23 06:58:00,8.4,0.0,30.31,N/A,-737280,0.0,-999.0,68,0.00,,,0.00,Wunderground v.1.15,2013-01-23 12:58:00,
2013-01-23 07:00:00,8.4,0.0,30.31,SW,225,0.0,-999.0,68,0.00,,,0.00,Wunderground v.1.15,2013-01-23 13:00:00,
2013-01-23 07:02:00,8.4,0.3,30.31,SW,232,0.0,0.0,69,0.00,,,0.00,Wunderground v.1.15,2013-01-23 13:02:00,
2013-01-23 07:03:00,8.4,0.3,30.31,SW,225,0.0,-999.0,69,0.00,,,0.00,Wunderground v.1.15,2013-01-23 13:03:00,
2013-01-23 07:07:00,8.4,0.3,30.31,SW,232,0.0,1.0,69,0.00,,,0.00,Wunderground v.1.15,2013-01-23 13:07:00,
2013-01-23 07:08:00,8.4,0.3,30.31,N/A,-737280,0.0,-999.0,69,0.00,,,0.00,Wunderground v.1.15,2013-01-23 13:08:00,
2013-01-23 07:12:00,8.4,0.3,30.31,SW,232,0.0,1.0,69,0.00,,,0.00,Wunderground v.1.15,2013-01-23 13:12:00,
2013-01-23 07:13:00,8.4,0.3,30.31,N/A,-737280,0.0,-999.0,69,0.00,,,0.00,Wunderground v.1.15,2013-01-23 13:13:00,
2013-01-23 07:17:00,8.5,0.7,30.31,SW,234,0.0,1.0,70,0.00,,,0.00,Wunderground v.1.15,2013-01-23 13:17:00,
2013-01-23 07:18:00,8.5,0.7,30.31,N/A,-737280,0.0,-999.0,70,0.00,,,0.00,Wunderground v.1.15,2013-01-23 13:18:00,
2013-01-23 07:22:00,8.5,0.7,30.31,SW,222,0.0,0.0,70,0.00,,,0.00,Wunderground v.1.15,2013-01-23 13:22:00,
2013-01-23 07:23:00,8.5,0.7,30.31,N/A,-737280,0.0,-999.0,70,0.00,,,0.00,Wunderground v.1.15,2013-01-23 13:23:00,
2013-01-23 07:28:00,8.5,0.7,30.31,SW,222,0.0,1.0,70,0.00,,,0.00,Wunderground v.1.15,2013-01-23 13:28:00,
2013-01-23 07:33:00,8.6,0.8,30.31,WSW,242,0.0,0.0,70,0.00,,,0.00,Wunderground v.1.15,2013-01-23 13:33:00,
2013-01-23 07:38:00,8.7,0.9,30.31,SW,233,0.0,1.0,70,0.00,,,0.00,Wunderground v.1.15,2013-01-23 13:38:00,
2013-01-23 07:43:00,8.7,0.9,30.31,N/A,-737280,0.0,-999.0,70,0.00,,,0.00,Wunderground v.1.15,2013-01-23 13:43:00,
2013-01-23 07:44:00,8.7,0.9,30.31,SW,232,0.0,0.0,70,0.00,,,0.00,Wunderground v.1.15,2013-01-23 13:44:00,
2013-01-23 07:48:00,8.8,1.3,30.31,N/A,-737280,0.0,-999.0,71,0.00,,,0.00,Wunderground v.1.15,2013-01-23 13:48:00,
2013-01-23 07:49:00,8.8,1.3,30.31,SW,220,0.0,0.0,71,0.00,,,0.00,Wunderground v.1.15,2013-01-23 13:49:00,
2013-01-23 07:53:00,8.8,1.3,30.31,N/A,-737280,0.0,-999.0,71,0.00,,,0.00,Wunderground v.1.15,2013-01-23 13:53:00,
2013-01-23 07:54:00,8.8,1.3,30.31,WSW,244,1.0,1.0,71,0.00,,,0.00,Wunderground v.1.15,2013-01-23 13:54:00,
2013-01-23 07:58:00,8.8,1.6,30.31,SW,225,0.0,-999.0,72,0.00,,,0.00,Wunderground v.1.15,2013-01-23 13:58:00,
2013-01-23 07:59:00,8.8,1.6,30.31,SW,229,0.0,1.0,72,0.00,,,0.00,Wunderground v.1.15,2013-01-23 13:59:00,
2013-01-23 08:03:00,8.9,1.7,30.31,N/A,-737280,0.0,-999.0,72,0.00,,,0.00,Wunderground v.1.15,2013-01-23 14:03:00,
2013-01-23 08:04:00,8.9,1.7,30.31,SW,229,0.0,0.0,72,0.00,,,0.00,Wunderground v.1.15,2013-01-23 14:04:00,
2013-01-23 08:08:00,9.0,1.8,30.31,SW,225,0.0,-999.0,72,0.00,,,0.00,Wunderground v.1.15,2013-01-23 14:08:00,
2013-01-23 08:09:00,9.0,1.8,30.31,SW,230,0.0,1.0,72,0.00,,,0.00,Wunderground v.1.15,2013-01-23 14:09:00,
2013-01-23 08:13:00,9.1,2.2,30.31,N/A,-737280,0.0,-999.0,73,0.00,,,0.00,Wunderground v.1.15,2013-01-23 14:13:00,
2013-01-23 08:14:00,9.1,2.2,30.31,SW,230,0.0,0.0,73,0.00,,,0.00,Wunderground v.1.15,2013-01-23 14:14:00,
2013-01-23 08:18:00,9.2,2.3,30.31,N/A,-737280,0.0,-999.0,73,0.00,,,0.00,Wunderground v.1.15,2013-01-23 14:18:00,
2013-01-23 08:20:00,9.2,2.3,30.31,SW,230,0.0,0.0,73,0.00,,,0.00,Wunderground v.1.15,2013-01-23 14:20:00,
2013-01-23 08:23:00,9.2,2.3,30.31,N/A,-737280,0.0,-999.0,73,0.00,,,0.00,Wunderground v.1.15,2013-01-23 14:23:00,
2013-01-23 08:25:00,9.3,2.7,30.31,SW,230,0.0,0.0,74,0.00,,,0.00,Wunderground v.1.15,2013-01-23 14:25:00,
2013-01-23 08:28:00,9.4,2.8,30.31,N/A,-737280,0.0,-999.0,74,0.00,,,0.00,Wunderground v.1.15,2013-01-23 14:28:00,
2013-01-23 08:30:00,9.4,2.8,30.31,SW,229,0.0,0.0,74,0.00,,,0.00,Wunderground v.1.15,2013-01-23 14:30:00,
2013-01-23 08:33:00,9.4,2.8,30.31,N/A,-737280,0.0,-999.0,74,0.00,,,0.00,Wunderground v.1.15,2013-01-23 14:33:00,
2013-01-23 08:36:00,9.4,2.8,30.31,SW,229,0.0,0.0,74,0.00,,,0.00,Wunderground v.1.15,2013-01-23 14:36:00,
2013-01-23 08:38:00,9.5,2.9,30.31,N/A,-737280,0.0,-999.0,74,0.00,,,0.00,Wunderground v.1.15,2013-01-23 14:38:00,
2013-01-23 08:41:00,9.5,2.9,30.31,SW,221,0.0,0.0,74,0.00,,,0.00,Wunderground v.1.15,2013-01-23 14:41:00,
2013-01-23 08:43:00,9.5,2.9,30.30,N/A,-737280,0.0,-999.0,74,0.00,,,0.00,Wunderground v.1.15,2013-01-23 14:43:00,
2013-01-23 08:46:00,9.6,3.3,30.31,SW,222,0.0,0.0,75,0.00,,,0.00,Wunderground v.1.15,2013-01-23 14:46:00,
2013-01-23 08:48:00,9.8,3.5,30.31,N/A,-737280,0.0,-999.0,75,0.00,,,0.00,Wunderground v.1.15,2013-01-23 14:48:00,
2013-01-23 08:51:00,9.8,3.5,30.31,SW,227,0.0,0.0,75,0.00,,,0.00,Wunderground v.1.15,2013-01-23 14:51:00,
2013-01-23 08:53:00,9.7,3.4,30.31,N/A,-737280,0.0,-999.0,75,0.00,,,0.00,Wunderground v.1.15,2013-01-23 14:53:00,
2013-01-23 08:56:00,9.8,3.5,30.31,SW,218,0.0,0.0,75,0.00,,,0.00,Wunderground v.1.15,2013-01-23 14:56:00,
2013-01-23 08:58:00,9.8,3.5,30.30,N/A,-737280,0.0,-999.0,75,0.00,,,0.00,Wunderground v.1.15,2013-01-23 14:58:00,
2013-01-23 09:01:00,9.8,3.5,30.30,West,263,0.0,0.0,75,0.00,,,0.00,Wunderground v.1.15,2013-01-23 15:01:00,
2013-01-23 09:03:00,9.9,3.8,30.30,N/A,-737280,0.0,-999.0,76,0.00,,,0.00,Wunderground v.1.15,2013-01-23 15:03:00,
2013-01-23 09:07:00,9.9,3.8,30.30,SSW,211,0.0,0.0,76,0.00,,,0.00,Wunderground v.1.15,2013-01-23 15:07:00,
2013-01-23 09:08:00,9.9,3.8,30.30,N/A,-737280,0.0,-999.0,76,0.00,,,0.00,Wunderground v.1.15,2013-01-23 15:08:00,
2013-01-23 09:13:00,9.9,3.8,30.30,SW,235,0.0,0.0,76,0.00,,,0.00,Wunderground v.1.15,2013-01-23 15:13:00,
2013-01-23 09:18:00,10.0,3.9,30.30,SW,221,0.0,0.0,76,0.00,,,0.00,Wunderground v.1.15,2013-01-23 15:18:00,
2013-01-23 09:23:00,10.1,4.3,30.30,N/A,-737280,0.0,-999.0,77,0.00,,,0.00,Wunderground v.1.15,2013-01-23 15:23:00,
2013-01-23 09:24:00,10.2,4.4,30.30,SW,217,0.0,0.0,77,0.00,,,0.00,Wunderground v.1.15,2013-01-23 15:24:00,
2013-01-23 09:28:00,10.3,4.5,30.31,N/A,-737280,0.0,-999.0,77,0.00,,,0.00,Wunderground v.1.15,2013-01-23 15:28:00,
2013-01-23 09:29:00,10.3,4.5,30.31,SW,227,0.0,0.0,77,0.00,,,0.00,Wunderground v.1.15,2013-01-23 15:29:00,
2013-01-23 09:33:00,10.3,4.5,30.31,N/A,-737280,0.0,-999.0,77,0.00,,,0.00,Wunderground v.1.15,2013-01-23 15:33:00,
2013-01-23 09:34:00,10.3,4.5,30.31,SW,229,0.0,0.0,77,0.00,,,0.00,Wunderground v.1.15,2013-01-23 15:34:00,
2013-01-23 09:38:00,12.8,7.2,30.31,NW,315,4.0,-999.0,78,0.00,,,0.00,Wunderground v.1.15,2013-01-23 15:38:00,
2013-01-23 09:39:00,12.8,7.2,30.30,NNW,336,0.0,6.0,78,0.00,,,0.00,Wunderground v.1.15,2013-01-23 15:39:00,
2013-01-23 09:43:00,12.8,7.2,30.30,N/A,-737280,0.0,-999.0,78,0.00,,,0.00,Wunderground v.1.15,2013-01-23 15:43:00,
2013-01-23 09:44:00,12.9,7.3,30.30,SW,236,0.0,3.0,78,0.00,,,0.00,Wunderground v.1.15,2013-01-23 15:44:00,
2013-01-23 09:48:00,13.1,7.8,30.30,WSW,248,5.0,-999.0,79,0.00,,,0.00,Wunderground v.1.15,2013-01-23 15:48:00,
2013-01-23 09:50:00,13.1,7.5,30.30,South,178,1.0,1.0,78,0.00,,,0.00,Wunderground v.1.15,2013-01-23 15:50:00,
2013-01-23 09:53:00,13.2,7.9,30.30,WSW,248,5.0,-999.0,79,0.00,,,0.00,Wunderground v.1.15,2013-01-23 15:53:00,
2013-01-23 09:55:00,13.3,8.0,30.30,WSW,252,1.0,8.0,79,0.00,,,0.00,Wunderground v.1.15,2013-01-23 15:55:00,
2013-01-23 09:58:00,13.3,7.7,30.30,WSW,248,1.0,-999.0,78,0.00,,,0.00,Wunderground v.1.15,2013-01-23 15:58:00,
2013-01-23 10:01:00,13.4,8.1,30.30,SW,234,3.0,3.0,79,0.00,,,0.00,Wunderground v.1.15,2013-01-23 16:01:00,
2013-01-23 10:03:00,13.4,8.1,30.30,WSW,248,3.0,-999.0,79,0.00,,,0.00,Wunderground v.1.15,2013-01-23 16:03:00,
2013-01-23 10:06:00,13.4,8.1,30.30,WNW,301,1.0,7.0,79,0.00,,,0.00,Wunderground v.1.15,2013-01-23 16:06:00,
2013-01-23 10:08:00,13.6,8.6,30.30,WNW,293,1.0,-999.0,80,0.00,,,0.00,Wunderground v.1.15,2013-01-23 16:08:00,
2013-01-23 10:11:00,13.7,8.7,30.30,WSW,240,4.0,6.0,80,0.00,,,0.00,Wunderground v.1.15,2013-01-23 16:11:00,
2013-01-23 10:13:00,13.8,8.8,30.30,SW,225,4.0,-999.0,80,0.00,,,0.00,Wunderground v.1.15,2013-01-23 16:13:00,
2013-01-23 10:16:00,13.8,8.5,30.30,WSW,237,0.0,10.0,79,0.00,,,0.00,Wunderground v.1.15,2013-01-23 16:16:00,
2013-01-23 10:18:00,13.9,8.9,30.30,WSW,248,4.0,-999.0,80,0.00,,,0.00,Wunderground v.1.15,2013-01-23 16:18:00,
2013-01-23 10:21:00,13.9,8.9,30.29,NW,325,1.0,3.0,80,0.00,,,0.00,Wunderground v.1.15,2013-01-23 16:21:00,
2013-01-23 10:23:00,11.4,6.4,30.29,N/A,-737280,0.0,-999.0,80,0.00,,,0.00,Wunderground v.1.15,2013-01-23 16:23:00,
2013-01-23 10:26:00,11.4,6.4,30.29,SW,225,0.0,3.0,80,0.00,,,0.00,Wunderground v.1.15,2013-01-23 16:26:00,
2013-01-23 10:28:00,11.5,6.5,30.29,N/A,-737280,0.0,-999.0,80,0.00,,,0.00,Wunderground v.1.15,2013-01-23 16:28:00,
2013-01-23 10:31:00,11.6,6.6,30.29,SW,225,0.0,0.0,80,0.00,,,0.00,Wunderground v.1.15,2013-01-23 16:31:00,
2013-01-23 10:33:00,11.6,6.6,30.29,N/A,-737280,0.0,-999.0,80,0.00,,,0.00,Wunderground v.1.15,2013-01-23 16:33:00,
2013-01-23 10:36:00,11.7,7.0,30.29,SW,222,0.0,0.0,81,0.00,,,0.00,Wunderground v.1.15,2013-01-23 16:36:00,
2013-01-23 10:38:00,11.8,7.1,30.29,N/A,-737280,0.0,-999.0,81,0.00,,,0.00,Wunderground v.1.15,2013-01-23 16:38:00,
2013-01-23 10:41:00,11.8,7.1,30.29,SSW,211,0.0,0.0,81,0.00,,,0.00,Wunderground v.1.15,2013-01-23 16:41:00,
2013-01-23 10:43:00,11.8,7.1,30.29,N/A,-737280,0.0,-999.0,81,0.00,,,0.00,Wunderground v.1.15,2013-01-23 16:43:00,
2013-01-23 10:46:00,11.8,7.1,30.29,SW,221,0.0,0.0,81,0.00,,,0.00,Wunderground v.1.15,2013-01-23 16:46:00,
2013-01-23 10:48:00,11.8,7.1,30.29,N/A,-737280,0.0,-999.0,81,0.00,,,0.00,Wunderground v.1.15,2013-01-23 16:48:00,
2013-01-23 10:51:00,12.0,7.6,30.29,WSW,238,0.0,0.0,82,0.00,,,0.00,Wunderground v.1.15,2013-01-23 16:51:00,
2013-01-23 10:53:00,12.1,7.7,30.29,N/A,-737280,0.0,-999.0,82,0.00,,,0.00,Wunderground v.1.15,2013-01-23 16:53:00,
2013-01-23 10:56:00,12.3,7.9,30.29,SW,223,0.0,0.0,82,0.00,,,0.00,Wunderground v.1.15,2013-01-23 16:56:00,
2013-01-23 10:58:00,12.3,7.9,30.29,N/A,-737280,0.0,-999.0,82,0.00,,,0.00,Wunderground v.1.15,2013-01-23 16:58:00,
2013-01-23 11:01:00,12.3,7.9,30.28,SW,229,0.0,0.0,82,0.00,,,0.00,Wunderground v.1.15,2013-01-23 17:01:00,
2013-01-23 11:03:00,12.3,7.9,30.28,N/A,-737280,0.0,-999.0,82,0.00,,,0.00,Wunderground v.1.15,2013-01-23 17:03:00,
2013-01-23 11:07:00,12.4,8.0,30.28,SW,215,0.0,0.0,82,0.00,,,0.00,Wunderground v.1.15,2013-01-23 17:07:00,
2013-01-23 11:08:00,12.5,8.0,30.28,N/A,-737280,0.0,-999.0,82,0.00,,,0.00,Wunderground v.1.15,2013-01-23 17:08:00,
2013-01-23 11:12:00,12.3,7.6,30.28,SW,232,0.0,0.0,81,0.00,,,0.00,Wunderground v.1.15,2013-01-23 17:12:00,
2013-01-23 11:13:00,12.3,7.6,30.28,N/A,-737280,0.0,-999.0,81,0.00,,,0.00,Wunderground v.1.15,2013-01-23 17:13:00,
2013-01-23 11:17:00,12.3,7.6,30.27,SW,229,0.0,0.0,81,0.00,,,0.00,Wunderground v.1.15,2013-01-23 17:17:00,
2013-01-23 11:18:00,12.3,7.6,30.27,N/A,-737280,0.0,-999.0,81,0.00,,,0.00,Wunderground v.1.15,2013-01-23 17:18:00,
2013-01-23 11:22:00,12.4,8.0,30.27,SSW,205,0.0,0.0,82,0.00,,,0.00,Wunderground v.1.15,2013-01-23 17:22:00,
2013-01-23 11:23:00,12.5,8.0,30.27,N/A,-737280,0.0,-999.0,82,0.00,,,0.00,Wunderground v.1.15,2013-01-23 17:23:00,
2013-01-23 11:28:00,12.6,7.9,30.26,SSW,210,0.0,0.0,81,0.00,,,0.00,Wunderground v.1.15,2013-01-23 17:28:00,
2013-01-23 11:33:00,13.0,8.5,30.26,SW,223,0.0,0.0,82,0.00,,,0.00,Wunderground v.1.15,2013-01-23 17:33:00,
2013-01-23 11:38:00,13.2,8.5,30.25,SW,234,0.0,0.0,81,0.00,,,0.00,Wunderground v.1.15,2013-01-23 17:38:00,
2013-01-23 11:43:00,13.3,8.6,30.25,SW,215,0.0,0.0,81,0.00,,,0.00,Wunderground v.1.15,2013-01-23 17:43:00,
2013-01-23 11:48:00,13.4,8.7,30.25,WSW,253,0.0,0.0,81,0.00,,,0.00,Wunderground v.1.15,2013-01-23 17:48:00,
2013-01-23 11:53:00,13.4,8.4,30.25,SSW,202,0.0,0.0,80,0.00,,,0.00,Wunderground v.1.15,2013-01-23 17:53:00,
2013-01-23 11:58:00,13.4,8.4,30.24,N/A,-737280,0.0,-999.0,80,0.00,,,0.00,Wunderground v.1.15,2013-01-23 17:58:00,
2013-01-23 11:59:00,13.4,8.4,30.24,SW,226,0.0,0.0,80,0.00,,,0.00,Wunderground v.1.15,2013-01-23 17:59:00,
2013-01-23 12:03:00,13.6,8.3,30.23,N/A,-737280,0.0,-999.0,79,0.00,,,0.00,Wunderground v.1.15,2013-01-23 18:03:00,
2013-01-23 12:04:00,13.6,8.3,30.23,SW,227,0.0,0.0,79,0.00,,,0.00,Wunderground v.1.15,2013-01-23 18:04:00,
2013-01-23 12:08:00,14.0,8.7,30.23,N/A,-737280,0.0,-999.0,79,0.00,,,0.00,Wunderground v.1.15,2013-01-23 18:08:00,
2013-01-23 12:09:00,14.0,8.7,30.23,SW,234,0.0,0.0,79,0.00,,,0.00,Wunderground v.1.15,2013-01-23 18:09:00,
2013-01-23 12:13:00,14.0,8.4,30.22,N/A,-737280,0.0,-999.0,78,0.00,,,0.00,Wunderground v.1.15,2013-01-23 18:13:00,
2013-01-23 12:14:00,14.0,8.4,30.22,SW,223,0.0,0.0,78,0.00,,,0.00,Wunderground v.1.15,2013-01-23 18:14:00,
2013-01-23 12:18:00,14.1,8.5,30.22,N/A,-737280,0.0,-999.0,78,0.00,,,0.00,Wunderground v.1.15,2013-01-23 18:18:00,
2013-01-23 12:19:00,14.1,8.5,30.21,WSW,240,0.0,0.0,78,0.00,,,0.00,Wunderground v.1.15,2013-01-23 18:19:00,
2013-01-23 12:23:00,14.2,8.6,30.22,N/A,-737280,0.0,-999.0,78,0.00,,,0.00,Wunderground v.1.15,2013-01-23 18:23:00,
2013-01-23 12:24:00,14.1,8.5,30.21,SW,229,0.0,0.0,78,0.00,,,0.00,Wunderground v.1.15,2013-01-23 18:24:00,
2013-01-23 12:28:00,14.2,8.6,30.21,N/A,-737280,0.0,-999.0,78,0.00,,,0.00,Wunderground v.1.15,2013-01-23 18:28:00,
2013-01-23 12:29:00,14.2,8.9,30.21,WSW,244,0.0,0.0,79,0.00,,,0.00,Wunderground v.1.15,2013-01-23 18:29:00,
2013-01-23 12:33:00,14.3,8.7,30.21,N/A,-737280,0.0,-999.0,78,0.00,,,0.00,Wunderground v.1.15,2013-01-23 18:33:00,
2013-01-23 12:34:00,14.3,8.7,30.20,SW,228,0.0,0.0,78,0.00,,,0.00,Wunderground v.1.15,2013-01-23 18:34:00,
2013-01-23 12:38:00,14.2,8.9,30.20,N/A,-737280,0.0,-999.0,79,0.00,,,0.00,Wunderground v.1.15,2013-01-23 18:38:00,
2013-01-23 12:39:00,14.2,8.9,30.20,SW,229,0.0,0.0,79,0.00,,,0.00,Wunderground v.1.15,2013-01-23 18:39:00,
2013-01-23 12:43:00,14.1,8.8,30.20,N/A,-737280,0.0,-999.0,79,0.00,,,0.00,Wunderground v.1.15,2013-01-23 18:43:00,
2013-01-23 12:44:00,14.1,8.8,30.20,SW,223,0.0,0.0,79,0.00,,,0.00,Wunderground v.1.15,2013-01-23 18:44:00,
2013-01-23 12:48:00,14.1,8.8,30.20,N/A,-737280,0.0,-999.0,79,0.00,,,0.00,Wunderground v.1.15,2013-01-23 18:48:00,
2013-01-23 12:53:00,14.3,9.3,30.19,N/A,-737280,0.0,-999.0,80,0.00,,,0.00,Wunderground v.1.15,2013-01-23 18:53:00,
2013-01-23 12:56:00,14.3,9.0,30.19,SW,231,0.0,0.0,79,0.00,,,0.00,Wunderground v.1.15,2013-01-23 18:56:00,
2013-01-23 12:58:00,14.4,9.1,30.19,N/A,-737280,0.0,-999.0,79,0.00,,,0.00,Wunderground v.1.15,2013-01-23 18:58:00,
2013-01-23 13:01:00,14.4,8.8,30.19,SW,229,0.0,0.0,78,0.00,,,0.00,Wunderground v.1.15,2013-01-23 19:01:00,
2013-01-23 13:03:00,14.4,8.8,30.18,N/A,-737280,0.0,-999.0,78,0.00,,,0.00,Wunderground v.1.15,2013-01-23 19:03:00,
2013-01-23 13:06:00,14.5,9.2,30.18,SW,232,0.0,0.0,79,0.00,,,0.00,Wunderground v.1.15,2013-01-23 19:06:00,
2013-01-23 13:08:00,14.7,9.4,30.18,N/A,-737280,0.0,-999.0,79,0.00,,,0.00,Wunderground v.1.15,2013-01-23 19:08:00,
2013-01-23 13:11:00,14.7,9.4,30.18,WSW,242,0.0,0.0,79,0.00,,,0.00,Wunderground v.1.15,2013-01-23 19:11:00,
2013-01-23 13:13:00,14.7,9.1,30.18,N/A,-737280,0.0,-999.0,78,0.00,,,0.00,Wunderground v.1.15,2013-01-23 19:13:00,
2013-01-23 13:16:00,14.7,9.1,30.18,WSW,244,0.0,0.0,78,0.00,,,0.00,Wunderground v.1.15,2013-01-23 19:16:00,
2013-01-23 13:18:00,14.8,9.2,30.18,N/A,-737280,0.0,-999.0,78,0.00,,,0.00,Wunderground v.1.15,2013-01-23 19:18:00,
2013-01-23 13:21:00,14.9,9.6,30.18,WSW,237,0.0,0.0,79,0.00,,,0.00,Wunderground v.1.15,2013-01-23 19:21:00,
2013-01-23 13:23:00,15.0,9.7,30.18,N/A,-737280,0.0,-999.0,79,0.00,,,0.00,Wunderground v.1.15,2013-01-23 19:23:00,
2013-01-23 13:26:00,15.3,10.2,30.18,West,263,0.0,0.0,80,0.00,,,0.00,Wunderground v.1.15,2013-01-23 19:26:00,
2013-01-23 13:28:00,15.4,10.1,30.18,N/A,-737280,0.0,-999.0,79,0.00,,,0.00,Wunderground v.1.15,2013-01-23 19:28:00,
2013-01-23 13:31:00,15.6,10.2,30.17,SW,215,0.0,0.0,79,0.00,,,0.00,Wunderground v.1.15,2013-01-23 19:31:00,
2013-01-23 13:33:00,15.6,10.2,30.17,N/A,-737280,0.0,-999.0,79,0.00,,,0.00,Wunderground v.1.15,2013-01-23 19:33:00,
2013-01-23 13:37:00,15.7,10.3,30.17,SW,227,0.0,1.0,79,0.00,,,0.00,Wunderground v.1.15,2013-01-23 19:37:00,
2013-01-23 13:38:00,15.6,10.0,30.17,N/A,-737280,0.0,-999.0,78,0.00,,,0.00,Wunderground v.1.15,2013-01-23 19:38:00,
2013-01-23 13:42:00,15.5,9.9,30.17,WSW,246,0.0,0.0,78,0.00,,,0.00,Wunderground v.1.15,2013-01-23 19:42:00,
2013-01-23 13:43:00,15.5,9.9,30.17,N/A,-737280,0.0,-999.0,78,0.00,,,0.00,Wunderground v.1.15,2013-01-23 19:43:00,
2013-01-23 13:47:00,15.8,10.4,30.16,West,260,0.0,0.0,79,0.00,,,0.00,Wunderground v.1.15,2013-01-23 19:47:00,
2013-01-23 13:48:00,15.8,10.4,30.16,N/A,-737280,0.0,-999.0,79,0.00,,,0.00,Wunderground v.1.15,2013-01-23 19:48:00,
2013-01-23 13:52:00,16.0,10.6,30.16,SW,226,0.0,0.0,79,0.00,,,0.00,Wunderground v.1.15,2013-01-23 19:52:00,
2013-01-23 13:53:00,15.9,10.3,30.16,N/A,-737280,0.0,-999.0,78,0.00,,,0.00,Wunderground v.1.15,2013-01-23 19:53:00,
2013-01-23 13:57:00,15.7,10.3,30.16,SW,235,0.0,0.0,79,0.00,,,0.00,Wunderground v.1.15,2013-01-23 19:57:00,
2013-01-23 13:58:00,15.7,10.3,30.16,N/A,-737280,0.0,-999.0,79,0.00,,,0.00,Wunderground v.1.15,2013-01-23 19:58:00,
2013-01-23 14:02:00,16.0,10.9,30.17,WSW,257,0.0,0.0,80,0.00,,,0.00,Wunderground v.1.15,2013-01-23 20:02:00,
2013-01-23 14:03:00,16.0,10.9,30.17,N/A,-737280,0.0,-999.0,80,0.00,,,0.00,Wunderground v.1.15,2013-01-23 20:03:00,
2013-01-23 14:08:00,16.1,10.4,30.17,West,271,0.0,1.0,78,0.00,,,0.00,Wunderground v.1.15,2013-01-23 20:08:00,
2013-01-23 14:13:00,16.0,10.6,30.17,SW,232,0.0,1.0,79,0.00,,,0.00,Wunderground v.1.15,2013-01-23 20:13:00,
2013-01-23 14:18:00,15.8,10.4,30.16,SSW,211,0.0,1.0,79,0.00,,,0.00,Wunderground v.1.15,2013-01-23 20:18:00,
2013-01-23 14:23:00,15.9,10.8,30.16,WSW,250,0.0,1.0,80,0.00,,,0.00,Wunderground v.1.15,2013-01-23 20:23:00,
2013-01-23 14:28:00,15.8,10.7,30.16,West,266,0.0,1.0,80,0.00,,,0.00,Wunderground v.1.15,2013-01-23 20:28:00,
2013-01-23 14:33:00,15.7,10.6,30.16,WSW,255,0.0,0.0,80,0.00,,,0.00,Wunderground v.1.15,2013-01-23 20:33:00,
2013-01-23 14:38:00,15.7,10.9,30.16,WSW,240,0.0,0.0,81,0.00,,,0.00,Wunderground v.1.15,2013-01-23 20:38:00,
2013-01-23 14:43:00,15.7,11.2,30.16,N/A,-737280,0.0,-999.0,82,0.00,,,0.00,Wunderground v.1.15,2013-01-23 20:43:00,
2013-01-23 14:44:00,15.7,11.2,30.16,West,263,0.0,0.0,82,0.00,,,0.00,Wunderground v.1.15,2013-01-23 20:44:00,
2013-01-23 14:48:00,15.8,11.3,30.16,N/A,-737280,0.0,-999.0,82,0.00,,,0.00,Wunderground v.1.15,2013-01-23 20:48:00,
2013-01-23 14:49:00,15.8,11.3,30.16,West,266,0.0,0.0,82,0.00,,,0.00,Wunderground v.1.15,2013-01-23 20:49:00,
2013-01-23 14:53:00,15.7,11.2,30.16,WSW,248,0.0,-999.0,82,0.00,,,0.00,Wunderground v.1.15,2013-01-23 20:53:00,
2013-01-23 14:54:00,15.7,11.2,30.16,WSW,242,0.0,1.0,82,0.00,,,0.00,Wunderground v.1.15,2013-01-23 20:54:00,
2013-01-23 14:58:00,15.7,11.5,30.16,N/A,-737280,0.0,-999.0,83,0.00,,,0.00,Wunderground v.1.15,2013-01-23 20:58:00,
2013-01-23 14:59:00,15.8,11.6,30.16,WSW,240,0.0,1.0,83,0.00,,,0.00,Wunderground v.1.15,2013-01-23 20:59:00,
2013-01-23 15:03:00,15.8,11.6,30.16,N/A,-737280,0.0,-999.0,83,0.00,,,0.00,Wunderground v.1.15,2013-01-23 21:03:00,
2013-01-23 15:04:00,15.9,11.7,30.16,WSW,247,0.0,0.0,83,0.00,,,0.00,Wunderground v.1.15,2013-01-23 21:04:00,
2013-01-23 15:08:00,15.9,11.7,30.16,WSW,248,0.0,-999.0,83,0.00,,,0.00,Wunderground v.1.15,2013-01-23 21:08:00,
2013-01-23 15:09:00,15.9,11.4,30.17,SW,218,0.0,1.0,82,0.00,,,0.00,Wunderground v.1.15,2013-01-23 21:09:00,
2013-01-23 15:13:00,16.0,11.7,30.17,SW,225,0.0,-999.0,83,0.00,,,0.00,Wunderground v.1.15,2013-01-23 21:13:00,
2013-01-23 15:15:00,16.1,11.8,30.16,WSW,244,0.0,1.0,83,0.00,,,0.00,Wunderground v.1.15,2013-01-23 21:15:00,
2013-01-23 15:18:00,16.1,11.6,30.17,West,270,0.0,-999.0,82,0.00,,,0.00,Wunderground v.1.15,2013-01-23 21:18:00,
2013-01-23 15:20:00,16.1,11.6,30.17,West,278,0.0,0.0,82,0.00,,,0.00,Wunderground v.1.15,2013-01-23 21:20:00,
2013-01-23 15:23:00,16.1,11.6,30.17,N/A,-737280,0.0,-999.0,82,0.00,,,0.00,Wunderground v.1.15,2013-01-23 21:23:00,
2013-01-23 15:25:00,16.0,11.5,30.17,West,281,0.0,1.0,82,0.00,,,0.00,Wunderground v.1.15,2013-01-23 21:25:00,
2013-01-23 15:28:00,16.1,11.3,30.17,N/A,-737280,0.0,-999.0,81,0.00,,,0.00,Wunderground v.1.15,2013-01-23 21:28:00,
2013-01-23 15:30:00,16.1,11.3,30.17,SW,225,0.0,0.0,81,0.00,,,0.00,Wunderground v.1.15,2013-01-23 21:30:00,
2013-01-23 15:33:00,16.1,11.3,30.17,N/A,-737280,0.0,-999.0,81,0.00,,,0.00,Wunderground v.1.15,2013-01-23 21:33:00,
2013-01-23 15:35:00,16.1,11.3,30.17,West,263,0.0,0.0,81,0.00,,,0.00,Wunderground v.1.15,2013-01-23 21:35:00,
2013-01-23 15:38:00,16.1,11.3,30.17,N/A,-737280,0.0,-999.0,81,0.00,,,0.00,Wunderground v.1.15,2013-01-23 21:38:00,
2013-01-23 15:40:00,16.1,11.3,30.17,West,269,0.0,0.0,81,0.00,,,0.00,Wunderground v.1.15,2013-01-23 21:40:00,
2013-01-23 15:43:00,16.1,11.6,30.17,N/A,-737280,0.0,-999.0,82,0.00,,,0.00,Wunderground v.1.15,2013-01-23 21:43:00,
2013-01-23 15:45:00,16.1,11.6,30.17,West,269,0.0,1.0,82,0.00,,,0.00,Wunderground v.1.15,2013-01-23 21:45:00,
2013-01-23 15:48:00,16.1,11.8,30.17,West,270,0.0,-999.0,83,0.00,,,0.00,Wunderground v.1.15,2013-01-23 21:48:00,
2013-01-23 15:50:00,16.1,11.8,30.17,West,276,0.0,0.0,83,0.00,,,0.00,Wunderground v.1.15,2013-01-23 21:50:00,
2013-01-23 15:53:00,16.1,11.8,30.17,N/A,-737280,0.0,-999.0,83,0.00,,,0.00,Wunderground v.1.15,2013-01-23 21:53:00,
2013-01-23 15:55:00,16.0,12.0,30.17,West,265,0.0,1.0,84,0.00,,,0.00,Wunderground v.1.15,2013-01-23 21:55:00,
2013-01-23 15:58:00,16.0,12.0,30.17,N/A,-737280,0.0,-999.0,84,0.00,,,0.00,Wunderground v.1.15,2013-01-23 21:58:00,
2013-01-23 16:00:00,15.9,11.9,30.17,WNW,286,0.0,0.0,84,0.00,,,0.00,Wunderground v.1.15,2013-01-23 22:00:00,
2013-01-23 16:03:00,15.9,12.2,30.18,N/A,-737280,0.0,-999.0,85,0.00,,,0.00,Wunderground v.1.15,2013-01-23 22:03:00,
2013-01-23 16:05:00,15.9,12.2,30.17,WSW,258,0.0,0.0,85,0.00,,,0.00,Wunderground v.1.15,2013-01-23 22:05:00,
2013-01-23 16:08:00,15.9,12.2,30.17,WSW,248,0.0,-999.0,85,0.00,,,0.00,Wunderground v.1.15,2013-01-23 22:08:00,
2013-01-23 16:10:00,16.0,12.3,30.18,West,259,0.0,0.0,85,0.00,,,0.00,Wunderground v.1.15,2013-01-23 22:10:00,
2013-01-23 16:13:00,15.9,12.2,30.17,N/A,-737280,0.0,-999.0,85,0.00,,,0.00,Wunderground v.1.15,2013-01-23 22:13:00,
2013-01-23 16:15:00,15.9,12.2,30.18,West,263,0.0,0.0,85,0.00,,,0.00,Wunderground v.1.15,2013-01-23 22:15:00,
2013-01-23 16:18:00,15.8,12.1,30.18,N/A,-737280,0.0,-999.0,85,0.00,,,0.00,Wunderground v.1.15,2013-01-23 22:18:00,
2013-01-23 16:20:00,15.8,12.1,30.17,WSW,245,0.0,0.0,85,0.00,,,0.00,Wunderground v.1.15,2013-01-23 22:20:00,
2013-01-23 16:23:00,15.8,12.1,30.17,N/A,-737280,0.0,-999.0,85,0.00,,,0.00,Wunderground v.1.15,2013-01-23 22:23:00,
2013-01-23 16:25:00,15.8,12.1,30.17,West,260,0.0,1.0,85,0.00,,,0.00,Wunderground v.1.15,2013-01-23 22:25:00,
2013-01-23 16:28:00,15.8,12.1,30.17,WNW,293,0.0,-999.0,85,0.00,,,0.00,Wunderground v.1.15,2013-01-23 22:28:00,
2013-01-23 16:30:00,15.8,12.1,30.18,West,279,0.0,0.0,85,0.00,,,0.00,Wunderground v.1.15,2013-01-23 22:30:00,
2013-01-23 16:33:00,15.8,12.1,30.18,N/A,-737280,0.0,-999.0,85,0.00,,,0.00,Wunderground v.1.15,2013-01-23 22:33:00,
2013-01-23 16:35:00,15.8,12.1,30.18,West,273,0.0,0.0,85,0.00,,,0.00,Wunderground v.1.15,2013-01-23 22:35:00,
2013-01-23 16:38:00,15.7,12.0,30.18,N/A,-737280,0.0,-999.0,85,0.00,,,0.00,Wunderground v.1.15,2013-01-23 22:38:00,
2013-01-23 16:40:00,15.8,12.1,30.18,WSW,252,0.0,0.0,85,0.00,,,0.00,Wunderground v.1.15,2013-01-23 22:40:00,
2013-01-23 16:43:00,15.8,12.1,30.18,N/A,-737280,0.0,-999.0,85,0.00,,,0.00,Wunderground v.1.15,2013-01-23 22:43:00,
2013-01-23 16:46:00,15.8,12.1,30.17,WSW,252,0.0,1.0,85,0.00,,,0.00,Wunderground v.1.15,2013-01-23 22:46:00,
2013-01-23 16:48:00,15.8,12.1,30.18,WSW,248,0.0,-999.0,85,0.00,,,0.00,Wunderground v.1.15,2013-01-23 22:48:00,
2013-01-23 16:51:00,15.8,12.1,30.18,WSW,256,0.0,0.0,85,0.00,,,0.00,Wunderground v.1.15,2013-01-23 22:51:00,
2013-01-23 16:53:00,15.8,12.1,30.18,N/A,-737280,0.0,-999.0,85,0.00,,,0.00,Wunderground v.1.15,2013-01-23 22:53:00,
2013-01-23 16:57:00,15.8,12.1,30.18,West,259,0.0,1.0,85,0.00,,,0.00,Wunderground v.1.15,2013-01-23 22:57:00,
2013-01-23 16:58:00,15.8,12.1,30.18,West,270,0.0,-999.0,85,0.00,,,0.00,Wunderground v.1.15,2013-01-23 22:58:00,
2013-01-23 17:02:00,15.8,12.1,30.18,West,275,0.0,0.0,85,0.00,,,0.00,Wunderground v.1.15,2013-01-23 23:02:00,
2013-01-23 17:03:00,15.8,12.1,30.18,N/A,-737280,0.0,-999.0,85,0.00,,,0.00,Wunderground v.1.15,2013-01-23 23:03:00,
2013-01-23 17:07:00,15.8,12.4,30.18,West,275,0.0,1.0,86,0.00,,,0.00,Wunderground v.1.15,2013-01-23 23:07:00,
2013-01-23 17:08:00,15.8,12.4,30.18,N/A,-737280,0.0,-999.0,86,0.00,,,0.00,Wunderground v.1.15,2013-01-23 23:08:00,
2013-01-23 17:13:00,15.8,12.4,30.18,West,275,0.0,0.0,86,0.00,,,0.00,Wunderground v.1.15,2013-01-23 23:13:00,
2013-01-23 17:18:00,15.8,12.4,30.18,N/A,-737280,0.0,-999.0,86,0.00,,,0.00,Wunderground v.1.15,2013-01-23 23:18:00,
2013-01-23 17:19:00,15.8,12.4,30.18,West,275,0.0,2.0,86,0.00,,,0.00,Wunderground v.1.15,2013-01-23 23:19:00,
2013-01-23 17:23:00,15.8,12.4,30.19,N/A,-737280,0.0,-999.0,86,0.00,,,0.00,Wunderground v.1.15,2013-01-23 23:23:00,
2013-01-23 17:24:00,15.7,12.3,30.19,West,275,0.0,1.0,86,0.00,,,0.00,Wunderground v.1.15,2013-01-23 23:24:00,
2013-01-23 17:28:00,15.7,12.3,30.19,West,270,0.0,-999.0,86,0.00,,,0.00,Wunderground v.1.15,2013-01-23 23:28:00,
2013-01-23 17:29:00,15.7,12.3,30.19,West,275,0.0,1.0,86,0.00,,,0.00,Wunderground v.1.15,2013-01-23 23:29:00,
2013-01-23 17:33:00,15.7,12.5,30.19,West,270,0.0,-999.0,87,0.00,,,0.00,Wunderground v.1.15,2013-01-23 23:33:00,
2013-01-23 17:34:00,15.7,12.5,30.19,West,275,0.0,1.0,87,0.00,,,0.00,Wunderground v.1.15,2013-01-23 23:34:00,
2013-01-23 17:38:00,15.7,12.5,30.20,West,270,0.0,-999.0,87,0.00,,,0.00,Wunderground v.1.15,2013-01-23 23:38:00,
2013-01-23 17:40:00,15.7,12.5,30.20,West,275,0.0,0.0,87,0.00,,,0.00,Wunderground v.1.15,2013-01-23 23:40:00,
2013-01-23 17:43:00,15.7,12.5,30.20,N/A,-737280,0.0,-999.0,87,0.00,,,0.00,Wunderground v.1.15,2013-01-23 23:43:00,
2013-01-23 17:45:00,15.6,12.4,30.20,West,275,0.0,1.0,87,0.00,,,0.00,Wunderground v.1.15,2013-01-23 23:45:00,
2013-01-23 17:48:00,15.5,12.3,30.20,N/A,-737280,0.0,-999.0,87,0.00,,,0.00,Wunderground v.1.15,2013-01-23 23:48:00,
2013-01-23 17:50:00,15.5,12.3,30.20,West,275,0.0,0.0,87,0.00,,,0.00,Wunderground v.1.15,2013-01-23 23:50:00,
2013-01-23 17:53:00,15.4,12.2,30.20,N/A,-737280,0.0,-999.0,87,0.00,,,0.00,Wunderground v.1.15,2013-01-23 23:53:00,
2013-01-23 17:55:00,15.5,12.3,30.20,West,273,0.0,0.0,87,0.00,,,0.00,Wunderground v.1.15,2013-01-23 23:55:00,
2013-01-23 17:58:00,15.5,12.3,30.20,West,270,0.0,-999.0,87,0.00,,,0.00,Wunderground v.1.15,2013-01-23 23:58:00,
2013-01-23 18:00:00,15.5,12.3,30.21,West,273,0.0,0.0,87,0.00,,,0.00,Wunderground v.1.15,2013-01-24 00:00:00,
2013-01-23 18:03:00,15.5,12.3,30.21,West,270,0.0,-999.0,87,0.00,,,0.00,Wunderground v.1.15,2013-01-24 00:03:00,
2013-01-23 18:06:00,15.5,12.3,30.21,West,273,0.0,1.0,87,0.00,,,0.00,Wunderground v.1.15,2013-01-24 00:06:00,
2013-01-23 18:08:00,15.6,12.4,30.21,West,270,0.0,-999.0,87,0.00,,,0.00,Wunderground v.1.15,2013-01-24 00:08:00,
2013-01-23 18:12:00,15.6,12.4,30.21,NW,323,0.0,1.0,87,0.00,,,0.00,Wunderground v.1.15,2013-01-24 00:12:00,
2013-01-23 18:13:00,15.6,12.4,30.21,N/A,-737280,0.0,-999.0,87,0.00,,,0.00,Wunderground v.1.15,2013-01-24 00:13:00,
2013-01-23 18:17:00,15.7,12.5,30.21,NW,325,0.0,1.0,87,0.00,,,0.00,Wunderground v.1.15,2013-01-24 00:17:00,
2013-01-23 18:18:00,15.7,12.8,30.22,N/A,-737280,0.0,-999.0,88,0.00,,,0.00,Wunderground v.1.15,2013-01-24 00:18:00,
2013-01-23 18:22:00,15.7,12.8,30.21,NW,319,0.0,0.0,88,0.00,,,0.00,Wunderground v.1.15,2013-01-24 00:22:00,
2013-01-23 18:23:00,15.6,12.7,30.22,N/A,-737280,0.0,-999.0,88,0.00,,,0.00,Wunderground v.1.15,2013-01-24 00:23:00,
2013-01-23 18:27:00,15.5,12.6,30.22,NW,326,0.0,0.0,88,0.00,,,0.00,Wunderground v.1.15,2013-01-24 00:27:00,
2013-01-23 18:28:00,15.4,12.5,30.22,WNW,293,0.0,-999.0,88,0.00,,,0.00,Wunderground v.1.15,2013-01-24 00:28:00,
2013-01-23 18:32:00,15.2,12.3,30.22,NW,325,0.0,0.0,88,0.00,,,0.00,Wunderground v.1.15,2013-01-24 00:32:00,
2013-01-23 18:33:00,15.0,12.1,30.22,N/A,-737280,0.0,-999.0,88,0.00,,,0.00,Wunderground v.1.15,2013-01-24 00:33:00,
2013-01-23 18:37:00,14.8,11.9,30.23,NNE,32,0.0,0.0,88,0.00,,,0.00,Wunderground v.1.15,2013-01-24 00:37:00,
2013-01-23 18:38:00,14.8,11.9,30.23,N/A,-737280,0.0,-999.0,88,0.00,,,0.00,Wunderground v.1.15,2013-01-24 00:38:00,
2013-01-23 18:43:00,14.5,11.3,30.24,NNW,331,0.0,1.0,87,0.00,,,0.00,Wunderground v.1.15,2013-01-24 00:43:00,
2013-01-23 18:48:00,14.2,10.8,30.24,NNW,333,1.0,1.0,86,0.00,,,0.00,Wunderground v.1.15,2013-01-24 00:48:00,
2013-01-23 18:53:00,14.1,10.7,30.24,NNW,338,0.0,1.0,86,0.00,,,0.00,Wunderground v.1.15,2013-01-24 00:53:00,
2013-01-23 18:58:00,13.9,10.2,30.25,NNW,336,1.0,4.0,85,0.00,,,0.00,Wunderground v.1.15,2013-01-24 00:58:00,
2013-01-23 19:03:00,13.7,9.8,30.25,North,360,0.0,5.0,84,0.00,,,0.00,Wunderground v.1.15,2013-01-24 01:03:00,
2013-01-23 19:08:00,13.6,9.7,30.25,NE,45,0.0,-999.0,84,0.00,,,0.00,Wunderground v.1.15,2013-01-24 01:08:00,
2013-01-23 19:09:00,13.6,9.7,30.25,NNW,336,0.0,5.0,84,0.00,,,0.00,Wunderground v.1.15,2013-01-24 01:09:00,
2013-01-23 19:13:00,13.5,9.6,30.26,North,0,0.0,-999.0,84,0.00,,,0.00,Wunderground v.1.15,2013-01-24 01:13:00,
2013-01-23 19:14:00,13.5,9.6,30.26,NNE,20,0.0,0.0,84,0.00,,,0.00,Wunderground v.1.15,2013-01-24 01:14:00,
2013-01-23 19:18:00,13.5,9.3,30.26,NNW,338,0.0,-999.0,83,0.00,,,0.00,Wunderground v.1.15,2013-01-24 01:18:00,
2013-01-23 19:19:00,13.5,9.3,30.26,NW,322,0.0,1.0,83,0.00,,,0.00,Wunderground v.1.15,2013-01-24 01:19:00,
2013-01-23 19:23:00,13.4,9.5,30.27,NNE,23,0.0,-999.0,84,0.00,,,0.00,Wunderground v.1.15,2013-01-24 01:23:00,
2013-01-23 19:24:00,13.4,9.5,30.27,NNE,22,0.0,1.0,84,0.00,,,0.00,Wunderground v.1.15,2013-01-24 01:24:00,
2013-01-23 19:28:00,13.3,9.4,30.27,N/A,-737280,0.0,-999.0,84,0.00,,,0.00,Wunderground v.1.15,2013-01-24 01:28:00,
2013-01-23 19:29:00,13.2,9.5,30.28,NW,318,0.0,1.0,85,0.00,,,0.00,Wunderground v.1.15,2013-01-24 01:29:00,
2013-01-23 19:33:00,13.2,9.5,30.28,NNW,338,0.0,-999.0,85,0.00,,,0.00,Wunderground v.1.15,2013-01-24 01:33:00,
2013-01-23 19:34:00,13.2,9.5,30.28,North,355,0.0,1.0,85,0.00,,,0.00,Wunderground v.1.15,2013-01-24 01:34:00,
2013-01-23 19:38:00,13.1,9.4,30.29,N/A,-737280,0.0,-999.0,85,0.00,,,0.00,Wunderground v.1.15,2013-01-24 01:38:00,
2013-01-23 19:39:00,13.1,9.4,30.29,NNW,346,0.0,1.0,85,0.00,,,0.00,Wunderground v.1.15,2013-01-24 01:39:00,
2013-01-23 19:43:00,13.0,9.6,30.29,N/A,-737280,0.0,-999.0,86,0.00,,,0.00,Wunderground v.1.15,2013-01-24 01:43:00,
2013-01-23 19:44:00,12.9,9.5,30.30,NNW,346,0.0,1.0,86,0.00,,,0.00,Wunderground v.1.15,2013-01-24 01:44:00,
2013-01-23 19:48:00,12.7,9.6,30.30,NW,315,0.0,-999.0,87,0.00,,,0.00,Wunderground v.1.15,2013-01-24 01:48:00,
2013-01-23 19:50:00,12.4,9.3,30.30,NW,309,0.0,0.0,87,0.00,,,0.00,Wunderground v.1.15,2013-01-24 01:50:00,
2013-01-23 19:53:00,12.1,8.7,30.30,NNE,23,0.0,-999.0,86,0.00,,,0.00,Wunderground v.1.15,2013-01-24 01:53:00,
2013-01-23 19:55:00,12.0,8.6,30.30,NW,326,1.0,2.0,86,0.00,,,0.00,Wunderground v.1.15,2013-01-24 01:55:00,
2013-01-23 19:58:00,11.8,8.2,30.31,NNW,338,0.0,-999.0,85,0.00,,,0.00,Wunderground v.1.15,2013-01-24 01:58:00,
2013-01-23 20:00:00,11.7,8.1,30.30,NNW,329,0.0,1.0,85,0.00,,,0.00,Wunderground v.1.15,2013-01-24 02:00:00,
2013-01-23 20:03:00,11.6,8.0,30.31,NNW,338,0.0,-999.0,85,0.00,,,0.00,Wunderground v.1.15,2013-01-24 02:03:00,
2013-01-23 20:06:00,11.4,7.5,30.31,NW,323,0.0,2.0,84,0.00,,,0.00,Wunderground v.1.15,2013-01-24 02:06:00,
2013-01-23 20:08:00,11.3,7.4,30.31,N/A,-737280,0.0,-999.0,84,0.00,,,0.00,Wunderground v.1.15,2013-01-24 02:08:00,
2013-01-23 20:11:00,11.2,7.3,30.31,NNW,345,0.0,0.0,84,0.00,,,0.00,Wunderground v.1.15,2013-01-24 02:11:00,
2013-01-23 20:13:00,11.1,7.2,30.31,N/A,-737280,0.0,-999.0,84,0.00,,,0.00,Wunderground v.1.15,2013-01-24 02:13:00,
2013-01-23 20:16:00,10.9,6.8,30.32,NNW,340,0.0,0.0,83,0.00,,,0.00,Wunderground v.1.15,2013-01-24 02:16:00,
2013-01-23 20:18:00,10.8,6.7,30.32,N/A,-737280,0.0,-999.0,83,0.00,,,0.00,Wunderground v.1.15,2013-01-24 02:18:00,
2013-01-23 20:21:00,10.8,6.4,30.32,NNW,336,0.0,1.0,82,0.00,,,0.00,Wunderground v.1.15,2013-01-24 02:21:00,
2013-01-23 20:23:00,10.7,6.3,30.31,North,0,0.0,-999.0,82,0.00,,,0.00,Wunderground v.1.15,2013-01-24 02:23:00,
2013-01-23 20:26:00,10.6,6.5,30.32,North,11,0.0,1.0,83,0.00,,,0.00,Wunderground v.1.15,2013-01-24 02:26:00,
2013-01-23 20:28:00,10.5,6.1,30.32,N/A,-737280,0.0,-999.0,82,0.00,,,0.00,Wunderground v.1.15,2013-01-24 02:28:00,
2013-01-23 20:31:00,10.4,6.0,30.32,NE,55,0.0,0.0,82,0.00,,,0.00,Wunderground v.1.15,2013-01-24 02:31:00,
2013-01-23 20:33:00,10.3,5.9,30.32,N/A,-737280,0.0,-999.0,82,0.00,,,0.00,Wunderground v.1.15,2013-01-24 02:33:00,
2013-01-23 20:37:00,10.0,5.1,30.32,North,360,0.0,0.0,80,0.00,,,0.00,Wunderground v.1.15,2013-01-24 02:37:00,
2013-01-23 20:38:00,9.9,5.2,30.32,N/A,-737280,0.0,-999.0,81,0.00,,,0.00,Wunderground v.1.15,2013-01-24 02:38:00,
2013-01-23 20:43:00,9.9,4.7,30.33,North,355,0.0,0.0,79,0.00,,,0.00,Wunderground v.1.15,2013-01-24 02:43:00,
2013-01-23 20:48:00,9.7,4.5,30.34,North,9,0.0,1.0,79,0.00,,,0.00,Wunderground v.1.15,2013-01-24 02:48:00,
2013-01-23 20:53:00,9.5,4.0,30.34,NNE,19,0.0,0.0,78,0.00,,,0.00,Wunderground v.1.15,2013-01-24 02:53:00,
2013-01-23 20:58:00,9.3,3.8,30.34,North,350,0.0,0.0,78,0.00,,,0.00,Wunderground v.1.15,2013-01-24 02:58:00,
2013-01-23 21:03:00,9.0,3.3,30.35,North,5,0.0,0.0,77,0.00,,,0.00,Wunderground v.1.15,2013-01-24 03:03:00,
2013-01-23 21:08:00,8.9,2.3,30.36,North,10,0.0,0.0,74,0.00,,,0.00,Wunderground v.1.15,2013-01-24 03:08:00,
2013-01-23 21:13:00,8.8,1.6,30.36,N/A,-737280,0.0,-999.0,72,0.00,,,0.00,Wunderground v.1.15,2013-01-24 03:13:00,
2013-01-23 21:14:00,8.7,1.2,30.36,NNE,16,0.0,0.0,71,0.00,,,0.00,Wunderground v.1.15,2013-01-24 03:14:00,
2013-01-23 21:18:00,8.6,0.8,30.36,N/A,-737280,0.0,-999.0,70,0.00,,,0.00,Wunderground v.1.15,2013-01-24 03:18:00,
2013-01-23 21:19:00,8.6,0.8,30.36,NNE,19,0.0,0.0,70,0.00,,,0.00,Wunderground v.1.15,2013-01-24 03:19:00,
2013-01-23 21:23:00,-999.9,-99.9,-100.00,NE,45,0.0,-999.0,-32768,0.00,,,0.00,Wunderground v.1.15,2013-01-24 03:23:00,
2013-01-23 21:24:00,-999.9,-99.9,30.37,North,32767,-999.0,1.0,255,0.00,,,0.00,Wunderground v.1.15,2013-01-24 03:24:00,
2013-01-23 21:28:00,8.4,-0.3,30.36,North,0,0.0,-999.0,67,0.00,,,0.00,Wunderground v.1.15,2013-01-24 03:28:00,
2013-01-23 21:29:00,8.4,-0.3,30.37,NNE,22,0.0,2.0,67,0.00,,,0.00,Wunderground v.1.15,2013-01-24 03:29:00,
2013-01-23 21:33:00,8.3,-1.1,30.37,North,0,0.0,-999.0,65,0.00,,,0.00,Wunderground v.1.15,2013-01-24 03:33:00,
2013-01-23 21:34:00,8.3,-1.1,30.37,NNE,24,0.0,2.0,65,0.00,,,0.00,Wunderground v.1.15,2013-01-24 03:34:00,
2013-01-23 21:38:00,8.2,-1.5,30.38,North,0,1.0,-999.0,64,0.00,,,0.00,Wunderground v.1.15,2013-01-24 03:38:00,
2013-01-23 21:39:00,8.2,-1.5,30.38,NE,34,3.0,4.0,64,0.00,,,0.00,Wunderground v.1.15,2013-01-24 03:39:00,
2013-01-23 21:43:00,8.1,-1.6,30.38,North,0,1.0,-999.0,64,0.00,,,0.00,Wunderground v.1.15,2013-01-24 03:43:00,
2013-01-23 21:45:00,8.1,-1.6,30.38,NE,44,0.0,3.0,64,0.00,,,0.00,Wunderground v.1.15,2013-01-24 03:45:00,
2013-01-23 21:51:00,8.0,-1.7,30.39,NNE,32,0.0,1.0,64,0.00,,,0.00,Wunderground v.1.15,2013-01-24 03:51:00,
2013-01-23 21:57:00,7.7,-1.6,30.38,NNE,26,3.0,3.0,65,0.00,,,0.00,Wunderground v.1.15,2013-01-24 03:57:00,
2013-01-23 22:02:00,7.7,-1.6,30.39,NNE,12,0.0,7.0,65,0.00,,,0.00,Wunderground v.1.15,2013-01-24 04:02:00,
2013-01-23 22:07:00,7.6,-2.1,30.39,NE,41,3.0,12.0,64,0.00,,,0.00,Wunderground v.1.15,2013-01-24 04:07:00,
2013-01-23 22:13:00,7.4,-1.9,30.40,North,360,0.0,4.0,65,0.00,,,0.00,Wunderground v.1.15,2013-01-24 04:13:00,
2013-01-23 22:19:00,7.3,-2.0,30.41,NNW,336,1.0,11.0,65,0.00,,,0.00,Wunderground v.1.15,2013-01-24 04:19:00,
2013-01-23 22:24:00,7.3,-2.0,30.40,NNE,21,0.0,10.0,65,0.00,,,0.00,Wunderground v.1.15,2013-01-24 04:24:00,
2013-01-23 22:29:00,7.2,-1.8,30.41,North,360,0.0,10.0,66,0.00,,,0.00,Wunderground v.1.15,2013-01-24 04:29:00,
2013-01-23 22:34:00,6.9,-2.1,30.41,North,11,0.0,2.0,66,0.00,,,0.00,Wunderground v.1.15,2013-01-24 04:34:00,
2013-01-23 22:39:00,6.6,-2.4,30.41,NNW,348,0.0,2.0,66,0.00,,,0.00,Wunderground v.1.15,2013-01-24 04:39:00,
2013-01-23 22:44:00,6.4,-2.2,30.42,North,360,0.0,1.0,67,0.00,,,0.00,Wunderground v.1.15,2013-01-24 04:44:00,
2013-01-23 22:49:00,6.3,-2.3,30.42,NNE,12,0.0,1.0,67,0.00,,,0.00,Wunderground v.1.15,2013-01-24 04:49:00,
2013-01-23 22:55:00,6.2,-2.1,30.43,NNW,340,0.0,1.0,68,0.00,,,0.00,Wunderground v.1.15,2013-01-24 04:55:00,
2013-01-23 23:00:00,6.1,-2.2,30.43,North,360,0.0,0.0,68,0.00,,,0.00,Wunderground v.1.15,2013-01-24 05:00:00,
2013-01-23 23:01:00,6.1,-2.2,30.43,North,11,0.0,0.0,68,0.00,,,0.00,Wunderground v.1.15,2013-01-24 05:01:00,
2013-01-23 23:02:00,6.1,-2.2,30.43,North,11,0.0,1.0,68,0.00,,,0.00,Wunderground v.1.15,2013-01-24 05:02:00,
2013-01-23 23:03:00,6.0,-2.3,30.43,NNE,14,0.0,1.0,68,0.00,,,0.00,Wunderground v.1.15,2013-01-24 05:03:00,
2013-01-23 23:08:00,6.0,-2.3,30.43,North,5,0.0,1.0,68,0.00,,,0.00,Wunderground v.1.15,2013-01-24 05:08:00,
2013-01-23 23:13:00,6.0,-2.3,30.44,North,5,0.0,2.0,68,0.00,,,0.00,Wunderground v.1.15,2013-01-24 05:13:00,
2013-01-23 23:18:00,6.0,-2.3,30.45,NNW,343,0.0,3.0,68,0.00,,,0.00,Wunderground v.1.15,2013-01-24 05:18:00,
2013-01-23 23:24:00,5.9,-2.4,30.45,NW,322,1.0,2.0,68,0.00,,,0.00,Wunderground v.1.15,2013-01-24 05:24:00,
2013-01-23 23:30:00,5.7,-2.6,30.45,North,360,0.0,0.0,68,0.00,,,0.00,Wunderground v.1.15,2013-01-24 05:30:00,
2013-01-23 23:35:00,5.5,-2.5,30.45,NNW,327,0.0,1.0,69,0.00,,,0.00,Wunderground v.1.15,2013-01-24 05:35:00,
2013-01-23 23:40:00,5.3,-2.7,30.46,North,360,0.0,0.0,69,0.00,,,0.00,Wunderground v.1.15,2013-01-24 05:40:00,
2013-01-23 23:45:00,5.3,-2.7,30.46,NNE,19,0.0,3.0,69,0.00,,,0.00,Wunderground v.1.15,2013-01-24 05:45:00,
2013-01-23 23:51:00,5.2,-2.8,30.47,North,360,1.0,2.0,69,0.00,,,0.00,Wunderground v.1.15,2013-01-24 05:51:00,
2013-01-23 23:56:00,5.1,-2.9,30.47,NE,44,2.0,3.0,69,0.00,,,0.00,Wunderground v.1.15,2013-01-24 05:56:00,